<?xml version="1.0" encoding="utf-8"?>
<gpx xmlns:xsi="http://www.w3.org/2001/XMLSchema-instance" xmlns:xsd="http://www.w3.org/2001/XMLSchema" version="1.1" creator="Shapelink.com" xmlns="http://www.topografix.com/GPX/1/1" xmlns:gpxtpx="http://www.garmin.com/xmlschemas/TrackPointExtension/v1">
  <metadata>
    <name>Övrigt 2.24 km, 2020-07-18</name>
    <desc></desc>
    <author><name>Marian Moron</name></author> 
    <time>2020-07-18T20:50:38Z</time>
  </metadata>
  <trk>
    <name>Övrigt 2.24 km, 2020-07-18</name>
    <trkseg>
      <trkpt lat="51.22942429633" lon="4.458002446959">
        <ele>0</ele>
        <time>2020-07-18T20:50:38Z</time>
      </trkpt>
      <trkpt lat="51.229313571431" lon="4.458050894341">
        <ele>0</ele>
        <time>2020-07-18T20:50:56Z</time>
      </trkpt>
      <trkpt lat="51.229046691735" lon="4.458130019477">
        <ele>0</ele>
        <time>2020-07-18T20:51:22Z</time>
      </trkpt>
      <trkpt lat="51.22866154343" lon="4.458333532009">
        <ele>0</ele>
        <time>2020-07-18T20:51:59Z</time>
      </trkpt>
      <trkpt lat="51.228665902018" lon="4.458123816871">
        <ele>0</ele>
        <time>2020-07-18T20:52:13Z</time>
      </trkpt>
      <trkpt lat="51.228580909552" lon="4.457498443312">
        <ele>0</ele>
        <time>2020-07-18T20:52:47Z</time>
      </trkpt>
      <trkpt lat="51.228587950348" lon="4.4573519277">
        <ele>0</ele>
        <time>2020-07-18T20:52:54Z</time>
      </trkpt>
      <trkpt lat="51.228546962857" lon="4.457199041844">
        <ele>0</ele>
        <time>2020-07-18T20:53:18Z</time>
      </trkpt>
      <trkpt lat="51.228641091594" lon="4.456890755562">
        <ele>0</ele>
        <time>2020-07-18T20:53:45Z</time>
      </trkpt>
      <trkpt lat="51.229103604836" lon="4.456904166602">
        <ele>9</ele>
        <time>2020-07-18T20:54:25Z</time>
      </trkpt>
      <trkpt lat="51.229305692445" lon="4.456721441182">
        <ele>12.8</ele>
        <time>2020-07-18T20:54:49Z</time>
      </trkpt>
      <trkpt lat="51.229521777827" lon="4.456627815359">
        <ele>19.2</ele>
        <time>2020-07-18T20:55:43Z</time>
      </trkpt>
      <trkpt lat="51.229617666763" lon="4.456598813985">
        <ele>21</ele>
        <time>2020-07-18T20:56:53Z</time>
      </trkpt>
      <trkpt lat="51.229667622887" lon="4.456579200339">
        <ele>18.2</ele>
        <time>2020-07-18T20:56:59Z</time>
      </trkpt>
      <trkpt lat="51.229797207061" lon="4.456589929171">
        <ele>20.8</ele>
        <time>2020-07-18T20:57:12Z</time>
      </trkpt>
      <trkpt lat="51.229839368018" lon="4.456613649948">
        <ele>22.8</ele>
        <time>2020-07-18T20:57:16Z</time>
      </trkpt>
      <trkpt lat="51.229890832884" lon="4.456587414601">
        <ele>23.2</ele>
        <time>2020-07-18T20:57:21Z</time>
      </trkpt>
      <trkpt lat="51.230013711538" lon="4.456590683542">
        <ele>26.8</ele>
        <time>2020-07-18T20:57:35Z</time>
      </trkpt>
      <trkpt lat="51.230094093959" lon="4.456562436539">
        <ele>28</ele>
        <time>2020-07-18T20:57:44Z</time>
      </trkpt>
      <trkpt lat="51.230166345937" lon="4.456548606404">
        <ele>28.8</ele>
        <time>2020-07-18T20:57:52Z</time>
      </trkpt>
      <trkpt lat="51.230331888462" lon="4.456491860941">
        <ele>29.6</ele>
        <time>2020-07-18T20:58:15Z</time>
      </trkpt>
      <trkpt lat="51.230521319402" lon="4.456438719695">
        <ele>34</ele>
        <time>2020-07-18T20:58:31Z</time>
      </trkpt>
      <trkpt lat="51.230634055957" lon="4.456416675298">
        <ele>34.4</ele>
        <time>2020-07-18T20:58:41Z</time>
      </trkpt>
      <trkpt lat="51.230841256525" lon="4.45628323545">
        <ele>27.2</ele>
        <time>2020-07-18T20:59:11Z</time>
      </trkpt>
      <trkpt lat="51.231200253302" lon="4.455980145946">
        <ele>5.4</ele>
        <time>2020-07-18T20:59:47Z</time>
      </trkpt>
      <trkpt lat="51.231207461736" lon="4.455845197356">
        <ele>3.8</ele>
        <time>2020-07-18T21:00:13Z</time>
      </trkpt>
      <trkpt lat="51.231230847237" lon="4.455594075632">
        <ele>0.4</ele>
        <time>2020-07-18T21:00:36Z</time>
      </trkpt>
      <trkpt lat="51.231141663821" lon="4.454879518657">
        <ele>0</ele>
        <time>2020-07-18T21:01:24Z</time>
      </trkpt>
      <trkpt lat="51.231104951099" lon="4.454315332968">
        <ele>7.2</ele>
        <time>2020-07-18T21:01:56Z</time>
      </trkpt>
      <trkpt lat="51.23105792864" lon="4.454276943866">
        <ele>3.2</ele>
        <time>2020-07-18T21:01:59Z</time>
      </trkpt>
      <trkpt lat="51.230971846527" lon="4.453822896343">
        <ele>0</ele>
        <time>2020-07-18T21:02:33Z</time>
      </trkpt>
      <trkpt lat="51.230962961713" lon="4.453787860001">
        <ele>0</ele>
        <time>2020-07-18T21:02:35Z</time>
      </trkpt>
      <trkpt lat="51.23087771779" lon="4.453083109849">
        <ele>5</ele>
        <time>2020-07-18T21:03:21Z</time>
      </trkpt>
      <trkpt lat="51.230778559913" lon="4.452377437688">
        <ele>8.2</ele>
        <time>2020-07-18T21:04:04Z</time>
      </trkpt>
      <trkpt lat="51.230677306561" lon="4.451671849346">
        <ele>11.4</ele>
        <time>2020-07-18T21:04:47Z</time>
      </trkpt>
      <trkpt lat="51.230667583557" lon="4.451606051431">
        <ele>10.4</ele>
        <time>2020-07-18T21:04:59Z</time>
      </trkpt>
      <trkpt lat="51.230546046007" lon="4.451352666594">
        <ele>0</ele>
        <time>2020-07-18T21:05:20Z</time>
      </trkpt>
      <trkpt lat="51.230515954986" lon="4.450935247974">
        <ele>2.4</ele>
        <time>2020-07-18T21:06:07Z</time>
      </trkpt>
      <trkpt lat="51.230656519449" lon="4.450699884222">
        <ele>0</ele>
        <time>2020-07-18T21:07:06Z</time>
      </trkpt>
      <trkpt lat="51.231077542286" lon="4.45051145911">
        <ele>0</ele>
        <time>2020-07-18T21:08:13Z</time>
      </trkpt>
      <trkpt lat="51.2312205375" lon="4.450637271429">
        <ele>0</ele>
        <time>2020-07-18T21:08:30Z</time>
      </trkpt>
      <trkpt lat="51.231430755552" lon="4.451162062188">
        <ele>14.6</ele>
        <time>2020-07-18T21:09:47Z</time>
      </trkpt>
      <trkpt lat="51.231432264294" lon="4.451181256739">
        <ele>14.2</ele>
        <time>2020-07-18T21:09:48Z</time>
      </trkpt>
      <trkpt lat="51.231466713903" lon="4.45131360694">
        <ele>12</ele>
        <time>2020-07-18T21:09:58Z</time>
      </trkpt>
      <trkpt lat="51.231530164886" lon="4.451626503267">
        <ele>11.4</ele>
        <time>2020-07-18T21:10:39Z</time>
      </trkpt>
      <trkpt lat="51.231575259508" lon="4.451762625323">
        <ele>14.4</ele>
        <time>2020-07-18T21:10:51Z</time>
      </trkpt>
      <trkpt lat="51.231647762943" lon="4.451976447592">
        <ele>19.8</ele>
        <time>2020-07-18T21:11:10Z</time>
      </trkpt>
      <trkpt lat="51.231766115371" lon="4.45237056453">
        <ele>25.2</ele>
        <time>2020-07-18T21:11:34Z</time>
      </trkpt>
      <trkpt lat="51.231755805634" lon="4.452501657446">
        <ele>22.4</ele>
        <time>2020-07-18T21:11:43Z</time>
      </trkpt>
      <trkpt lat="51.231772988529" lon="4.452911867632">
        <ele>18</ele>
        <time>2020-07-18T21:12:08Z</time>
      </trkpt>
      <trkpt lat="51.231780364601" lon="4.452941791015">
        <ele>17.8</ele>
        <time>2020-07-18T21:12:10Z</time>
      </trkpt>
      <trkpt lat="51.23179553584" lon="4.453192074549">
        <ele>15.4</ele>
        <time>2020-07-18T21:12:28Z</time>
      </trkpt>
      <trkpt lat="51.231823699024" lon="4.453705130648">
        <ele>8.6</ele>
        <time>2020-07-18T21:13:08Z</time>
      </trkpt>
      <trkpt lat="51.231837780616" lon="4.453729605796">
        <ele>8.6</ele>
        <time>2020-07-18T21:13:10Z</time>
      </trkpt>
      <trkpt lat="51.231851610751" lon="4.453769671278">
        <ele>8.8</ele>
        <time>2020-07-18T21:13:13Z</time>
      </trkpt>
      <trkpt lat="51.231842055385" lon="4.453800935765">
        <ele>10</ele>
        <time>2020-07-18T21:13:17Z</time>
      </trkpt>
      <trkpt lat="51.231736694902" lon="4.45382985332">
        <ele>9.4</ele>
        <time>2020-07-18T21:13:27Z</time>
      </trkpt>
      <trkpt lat="51.231292370383" lon="4.454017943156">
        <ele>0</ele>
        <time>2020-07-18T21:14:02Z</time>
      </trkpt>
      <trkpt lat="51.231098413217" lon="4.454263951921">
        <ele>0</ele>
        <time>2020-07-18T21:14:30Z</time>
      </trkpt>
      <trkpt lat="51.231208467564" lon="4.454770134862">
        <ele>5.6</ele>
        <time>2020-07-18T21:15:30Z</time>
      </trkpt>
      <trkpt lat="51.231300249369" lon="4.455422246682">
        <ele>19.8</ele>
        <time>2020-07-18T21:16:25Z</time>
      </trkpt>
      <trkpt lat="51.231306116699" lon="4.455528948269">
        <ele>18.8</ele>
        <time>2020-07-18T21:16:34Z</time>
      </trkpt>
      <trkpt lat="51.231466713903" lon="4.456117860563">
        <ele>3.4</ele>
        <time>2020-07-18T21:17:26Z</time>
      </trkpt>
      <trkpt lat="51.23147870002" lon="4.456120961866">
        <ele>3.2</ele>
        <time>2020-07-18T21:17:28Z</time>
      </trkpt>
      <trkpt lat="51.231507533756" lon="4.45627569174">
        <ele>5.8</ele>
        <time>2020-07-18T21:17:40Z</time>
      </trkpt>
      <trkpt lat="51.231499906227" lon="4.456339142723">
        <ele>9.4</ele>
        <time>2020-07-18T21:18:16Z</time>
      </trkpt>
      <trkpt lat="51.231344086706" lon="4.456463194843">
        <ele>9.8</ele>
        <time>2020-07-18T21:18:32Z</time>
      </trkpt>
      <trkpt lat="51.231328999286" lon="4.456655307991">
        <ele>6</ele>
        <time>2020-07-18T21:18:43Z</time>
      </trkpt>
      <trkpt lat="51.231319527739" lon="4.456715070938">
        <ele>5.6</ele>
        <time>2020-07-18T21:18:46Z</time>
      </trkpt>
      <trkpt lat="51.231234283816" lon="4.45745753964">
        <ele>7.6</ele>
        <time>2020-07-18T21:19:26Z</time>
      </trkpt>
      <trkpt lat="51.231227662115" lon="4.457662728552">
        <ele>5.2</ele>
        <time>2020-07-18T21:19:39Z</time>
      </trkpt>
      <trkpt lat="51.231252304901" lon="4.457955173043">
        <ele>2.6</ele>
        <time>2020-07-18T21:20:02Z</time>
      </trkpt>
      <trkpt lat="51.231248281589" lon="4.458626563233">
        <ele>0</ele>
        <time>2020-07-18T21:21:03Z</time>
      </trkpt>
      <trkpt lat="51.231196062352" lon="4.458704179627">
        <ele>0</ele>
        <time>2020-07-18T21:21:35Z</time>
      </trkpt>
      <trkpt lat="51.23113588031" lon="4.458748771335">
        <ele>0</ele>
        <time>2020-07-18T21:21:43Z</time>
      </trkpt>
      <trkpt lat="51.230735141671" lon="4.458779532908">
        <ele>3.4</ele>
        <time>2020-07-18T21:22:24Z</time>
      </trkpt>
      <trkpt lat="51.23031026316" lon="4.458980614689">
        <ele>1</ele>
        <time>2020-07-18T21:23:05Z</time>
      </trkpt>
      <trkpt lat="51.23024404615" lon="4.458995702109">
        <ele>0</ele>
        <time>2020-07-18T21:23:11Z</time>
      </trkpt>
      <trkpt lat="51.230194676759" lon="4.459015986307">
        <ele>0</ele>
        <time>2020-07-18T21:23:16Z</time>
      </trkpt>
      <trkpt lat="51.230036426487" lon="4.459038449799">
        <ele>0</ele>
        <time>2020-07-18T21:23:32Z</time>
      </trkpt>
      <trkpt lat="51.229795027767" lon="4.459074743426">
        <ele>0</ele>
        <time>2020-07-18T21:24:02Z</time>
      </trkpt>
      <trkpt lat="51.229347601945" lon="4.459171554371">
        <ele>0</ele>
        <time>2020-07-18T21:24:53Z</time>
      </trkpt>
      <trkpt lat="51.229201002514" lon="4.459212206586">
        <ele>0</ele>
        <time>2020-07-18T21:25:16Z</time>
      </trkpt>
      <trkpt lat="51.229086086665" lon="4.459243973987">
        <ele>0</ele>
        <time>2020-07-18T21:25:44Z</time>
      </trkpt>
      <trkpt lat="51.228925154185" lon="4.459237184648">
        <ele>0</ele>
        <time>2020-07-18T21:26:11Z</time>
      </trkpt>
      <trkpt lat="51.228598008628" lon="4.459333660317">
        <ele>0</ele>
        <time>2020-07-18T21:27:17Z</time>
      </trkpt>
      <trkpt lat="51.228522822985" lon="4.458978603033">
        <ele>0</ele>
        <time>2020-07-18T21:27:39Z</time>
      </trkpt>
      <trkpt lat="51.228508406117" lon="4.458774922863">
        <ele>0</ele>
        <time>2020-07-18T21:27:58Z</time>
      </trkpt>
      <trkpt lat="51.228548136323" lon="4.458355827863">
        <ele>0</ele>
        <time>2020-07-18T21:28:37Z</time>
      </trkpt>
      <trkpt lat="51.228572108557" lon="4.458280139306">
        <ele>0</ele>
        <time>2020-07-18T21:28:44Z</time>
      </trkpt>
      <trkpt lat="51.228675122108" lon="4.458155668091">
        <ele>0</ele>
        <time>2020-07-18T21:29:02Z</time>
      </trkpt>
      <trkpt lat="51.229129840183" lon="4.458095821325">
        <ele>5.4</ele>
        <time>2020-07-18T21:29:51Z</time>
      </trkpt>
      <trkpt lat="51.229571985408" lon="4.458005632081">
        <ele>0</ele>
        <time>2020-07-18T21:30:35Z</time>
      </trkpt>
      <trkpt lat="51.229678519357" lon="4.458028179392">
        <ele>0</ele>
        <time>2020-07-18T21:31:27Z</time>
      </trkpt>
    </trkseg>
  </trk>
</gpx>